KMSN

Dane County Regional-Truax Field Airport

Madison, Wisconsin, USA
METAR KMSN 212353Z 01004KT 10SM BKN250 M05/M11 A3063 RMK AO2 SLP387 T10501111 11028 21056 53004 $
Observed Flight Rules
Feb-21 @ 23:53 UTC (5 hours ago) Visual Flight Rules
Wind Visibility Clouds
10° at 4 knots 10 miles
  • Broken at 25,000' AGL
Temperatures Readings
Current -5°C / 23°F
Dewpoint -11°C / 12°F
Humidity 63%
Altimeter 30.63" Hg
Pressure 1038.7 hPa
Elevation 261
METAR KMSN 212353Z 01004KT 10SM BKN250 M05/M11 A3063 RMK AO2 SLP387 T10501111 11028 21056 53004 $
Observed Flight Rules
Feb-21 @ 23:53 UTC
(5 hours ago)
VFR
Wind Visibility
10° at 4 knots 10 miles
Clouds
  • Broken at 25,000' AGL
Temperature Dewpoint
-5°C / 23°F -11°C / 12°F
Humidity Altimeter Pressure
63% 30.63" Hg 1038.7 hPa